Time,TemperatureF,DewpointF,PressureIn,WindDirection,WindDirectionDegrees,WindSpeedMPH,WindSpeedGustMPH,Humidity,HourlyPrecipIn,Conditions,Clouds,dailyrainin,SolarRadiationWatts/m^2,SoftwareType,DateUTC
2013-04-17 00:12:00,46.0,34.0,-100.00,ENE,78,5.0,11.0,63,0.00,,,0.00,0.000000,,2013-04-17 05:12:00,
2013-04-17 00:22:00,46.0,34.0,-100.00,ENE,78,5.0,11.0,63,0.00,,,0.00,0.000000,,2013-04-17 05:22:00,
2013-04-17 00:32:00,46.0,34.0,-100.00,ENE,78,5.0,11.0,63,0.00,,,0.00,0.000000,,2013-04-17 05:32:00,
2013-04-17 00:42:00,46.0,34.0,-100.00,ENE,78,5.0,11.0,63,0.00,,,0.00,0.000000,,2013-04-17 05:42:00,
2013-04-17 01:12:00,46.0,36.0,-100.00,East,94,3.0,12.0,67,0.00,,,0.00,0.000000,,2013-04-17 06:12:00,
2013-04-17 01:22:00,46.0,36.0,-100.00,East,94,3.0,12.0,67,0.00,,,0.00,0.000000,,2013-04-17 06:22:00,
2013-04-17 01:32:00,46.0,36.0,-100.00,East,94,3.0,12.0,67,0.00,,,0.00,0.000000,,2013-04-17 06:32:00,
2013-04-17 01:42:00,46.0,36.0,-100.00,East,94,3.0,12.0,67,0.00,,,0.00,0.000000,,2013-04-17 06:42:00,
2013-04-17 02:12:00,45.0,35.0,-100.00,ENE,67,5.0,11.0,68,0.00,,,0.00,0.000000,,2013-04-17 07:12:00,
2013-04-17 02:22:00,45.0,35.0,-100.00,ENE,67,5.0,11.0,68,0.00,,,0.00,0.000000,,2013-04-17 07:22:00,
2013-04-17 02:32:00,45.0,35.0,-100.00,ENE,67,5.0,11.0,68,0.00,,,0.00,0.000000,,2013-04-17 07:32:00,
2013-04-17 02:42:00,45.0,35.0,-100.00,ENE,67,5.0,11.0,68,0.00,,,0.00,0.000000,,2013-04-17 07:42:00,
2013-04-17 03:12:00,45.0,35.0,-100.00,ENE,70,6.0,14.0,68,0.00,,,0.00,0.000000,,2013-04-17 08:12:00,
2013-04-17 03:22:00,45.0,35.0,-100.00,ENE,70,6.0,14.0,68,0.00,,,0.00,0.000000,,2013-04-17 08:22:00,
2013-04-17 03:32:00,45.0,35.0,-100.00,ENE,70,6.0,14.0,68,0.00,,,0.00,0.000000,,2013-04-17 08:32:00,
2013-04-17 03:42:00,45.0,35.0,-100.00,ENE,70,6.0,14.0,68,0.00,,,0.00,0.000000,,2013-04-17 08:42:00,
2013-04-17 04:12:00,45.0,36.0,-100.00,ENE,77,5.0,13.0,71,0.00,,,0.00,0.000000,,2013-04-17 09:12:00,
2013-04-17 04:22:00,45.0,36.0,-100.00,ENE,77,5.0,13.0,71,0.00,,,0.00,0.000000,,2013-04-17 09:22:00,
2013-04-17 04:33:00,45.0,36.0,-100.00,ENE,77,5.0,13.0,71,0.00,,,0.00,0.000000,,2013-04-17 09:33:00,
2013-04-17 04:42:00,45.0,36.0,-100.00,ENE,77,5.0,13.0,71,0.00,,,0.00,0.000000,,2013-04-17 09:42:00,
2013-04-17 05:12:00,44.0,36.0,-100.00,ENE,66,5.0,12.0,73,0.00,,,0.00,0.000000,,2013-04-17 10:12:00,
2013-04-17 05:23:00,44.0,36.0,-100.00,ENE,66,5.0,12.0,73,0.00,,,0.00,0.000000,,2013-04-17 10:23:00,
2013-04-17 05:32:00,44.0,36.0,-100.00,ENE,66,5.0,12.0,73,0.00,,,0.00,0.000000,,2013-04-17 10:32:00,
2013-04-17 05:42:00,44.0,36.0,-100.00,ENE,66,5.0,12.0,73,0.00,,,0.00,0.000000,,2013-04-17 10:42:00,
2013-04-17 06:12:00,44.0,36.0,-100.00,NE,53,7.0,14.0,73,0.00,,,0.00,0.000000,,2013-04-17 11:12:00,
2013-04-17 06:22:00,44.0,36.0,-100.00,NE,53,7.0,14.0,73,0.00,,,0.00,0.000000,,2013-04-17 11:22:00,
2013-04-17 06:32:00,44.0,36.0,-100.00,NE,53,7.0,14.0,73,0.00,,,0.00,0.000000,,2013-04-17 11:32:00,
2013-04-17 06:42:00,44.0,36.0,-100.00,NE,53,7.0,14.0,73,0.00,,,0.00,0.000000,,2013-04-17 11:42:00,
2013-04-17 07:12:00,41.0,40.0,-100.00,NE,43,2.0,14.0,96,0.14,,,0.14,0.000000,,2013-04-17 12:12:00,
2013-04-17 07:22:00,41.0,40.0,-100.00,NE,43,2.0,14.0,96,0.14,,,0.14,0.000000,,2013-04-17 12:22:00,
2013-04-17 07:32:00,41.0,40.0,-100.00,NE,43,2.0,14.0,96,0.14,,,0.14,0.000000,,2013-04-17 12:32:00,
2013-04-17 07:42:00,41.0,40.0,-100.00,NE,43,2.0,14.0,96,0.14,,,0.14,0.000000,,2013-04-17 12:42:00,
2013-04-17 08:12:00,40.0,39.0,-100.00,NNE,30,6.0,16.0,98,0.14,,,0.28,1.000000,,2013-04-17 13:12:00,
2013-04-17 08:22:00,40.0,39.0,-100.00,NNE,30,6.0,16.0,98,0.14,,,0.28,1.000000,,2013-04-17 13:22:00,
2013-04-17 08:32:00,40.0,39.0,-100.00,NNE,30,6.0,16.0,98,0.14,,,0.28,1.000000,,2013-04-17 13:32:00,
2013-04-17 08:42:00,40.0,39.0,-100.00,NNE,30,6.0,16.0,98,0.14,,,0.28,1.000000,,2013-04-17 13:42:00,
2013-04-17 09:12:00,39.0,39.0,-100.00,NNE,24,5.0,16.0,99,0.04,,,0.32,5.000000,,2013-04-17 14:12:00,
2013-04-17 09:22:00,39.0,39.0,-100.00,NNE,24,5.0,16.0,99,0.04,,,0.32,5.000000,,2013-04-17 14:22:00,
2013-04-17 09:32:00,39.0,39.0,-100.00,NNE,24,5.0,16.0,99,0.04,,,0.32,5.000000,,2013-04-17 14:32:00,
2013-04-17 09:42:00,39.0,39.0,-100.00,NNE,24,5.0,16.0,99,0.04,,,0.32,5.000000,,2013-04-17 14:42:00,
2013-04-17 10:12:00,39.0,38.0,-100.00,NNE,21,4.0,13.0,98,0.01,,,0.33,14.000000,,2013-04-17 15:12:00,
2013-04-17 10:22:00,39.0,38.0,-100.00,NNE,21,4.0,13.0,98,0.01,,,0.33,14.000000,,2013-04-17 15:22:00,
2013-04-17 10:33:00,39.0,38.0,-100.00,NNE,21,4.0,13.0,98,0.01,,,0.33,14.000000,,2013-04-17 15:33:00,
2013-04-17 10:42:00,39.0,38.0,-100.00,NNE,21,4.0,13.0,98,0.01,,,0.33,14.000000,,2013-04-17 15:42:00,
2013-04-17 11:12:00,40.0,39.0,-100.00,NNE,32,5.0,11.0,97,0.00,,,0.33,37.000000,,2013-04-17 16:12:00,
2013-04-17 11:23:00,40.0,39.0,-100.00,NNE,32,5.0,11.0,97,0.00,,,0.33,37.000000,,2013-04-17 16:23:00,
2013-04-17 11:32:00,40.0,39.0,-100.00,NNE,32,5.0,11.0,97,0.00,,,0.33,37.000000,,2013-04-17 16:32:00,
2013-04-17 11:42:00,40.0,39.0,-100.00,NNE,32,5.0,11.0,97,0.00,,,0.33,37.000000,,2013-04-17 16:42:00,
2013-04-17 12:12:00,42.0,41.0,-100.00,NNE,26,6.0,13.0,97,0.00,,,0.33,85.000000,,2013-04-17 17:12:00,
2013-04-17 12:22:00,42.0,41.0,-100.00,NNE,26,6.0,13.0,97,0.00,,,0.33,85.000000,,2013-04-17 17:22:00,
2013-04-17 12:33:00,42.0,41.0,-100.00,NNE,26,6.0,13.0,97,0.00,,,0.33,85.000000,,2013-04-17 17:33:00,
2013-04-17 12:42:00,42.0,41.0,-100.00,NNE,26,6.0,13.0,97,0.00,,,0.33,85.000000,,2013-04-17 17:42:00,
2013-04-17 13:12:00,42.0,42.0,-100.00,NNE,32,5.0,12.0,100,0.00,,,0.33,70.000000,,2013-04-17 18:12:00,
2013-04-17 13:22:00,42.0,42.0,-100.00,NNE,32,5.0,12.0,100,0.00,,,0.33,70.000000,,2013-04-17 18:22:00,
2013-04-17 13:32:00,42.0,42.0,-100.00,NNE,32,5.0,12.0,100,0.00,,,0.33,70.000000,,2013-04-17 18:32:00,
2013-04-17 13:42:00,42.0,42.0,-100.00,NNE,32,5.0,12.0,100,0.00,,,0.33,70.000000,,2013-04-17 18:42:00,
2013-04-17 14:12:00,43.0,43.0,-100.00,NE,35,5.0,12.0,100,0.01,,,0.34,90.000000,,2013-04-17 19:12:00,
2013-04-17 14:22:00,43.0,43.0,-100.00,NE,35,5.0,12.0,100,0.01,,,0.34,90.000000,,2013-04-17 19:22:00,
2013-04-17 14:32:00,43.0,43.0,-100.00,NE,35,5.0,12.0,100,0.01,,,0.34,90.000000,,2013-04-17 19:32:00,
2013-04-17 14:42:00,43.0,43.0,-100.00,NE,35,5.0,12.0,100,0.01,,,0.34,90.000000,,2013-04-17 19:42:00,
2013-04-17 15:12:00,42.0,42.0,-100.00,NE,53,6.0,13.0,100,0.00,,,0.34,48.000000,,2013-04-17 20:12:00,
2013-04-17 15:22:00,42.0,42.0,-100.00,NE,53,6.0,13.0,100,0.00,,,0.34,48.000000,,2013-04-17 20:22:00,
2013-04-17 15:32:00,42.0,42.0,-100.00,NE,53,6.0,13.0,100,0.00,,,0.34,48.000000,,2013-04-17 20:32:00,
2013-04-17 15:42:00,42.0,42.0,-100.00,NE,53,6.0,13.0,100,0.00,,,0.34,48.000000,,2013-04-17 20:42:00,
2013-04-17 16:12:00,42.0,42.0,-100.00,NE,41,6.0,14.0,100,0.01,,,0.35,70.000000,,2013-04-17 21:12:00,
2013-04-17 16:22:00,42.0,42.0,-100.00,NE,41,6.0,14.0,100,0.01,,,0.35,70.000000,,2013-04-17 21:22:00,
2013-04-17 16:33:00,42.0,42.0,-100.00,NE,41,6.0,14.0,100,0.01,,,0.35,70.000000,,2013-04-17 21:33:00,
2013-04-17 16:42:00,42.0,42.0,-100.00,NE,41,6.0,14.0,100,0.01,,,0.35,70.000000,,2013-04-17 21:42:00,
2013-04-17 17:12:00,41.0,41.0,-100.00,NE,46,4.0,14.0,100,0.00,,,0.35,53.000000,,2013-04-17 22:12:00,
2013-04-17 17:22:00,41.0,41.0,-100.00,NE,46,4.0,14.0,100,0.00,,,0.35,53.000000,,2013-04-17 22:22:00,
2013-04-17 17:33:00,41.0,41.0,-100.00,NE,46,4.0,14.0,100,0.00,,,0.35,53.000000,,2013-04-17 22:33:00,
2013-04-17 17:42:00,41.0,41.0,-100.00,NE,46,4.0,14.0,100,0.00,,,0.35,53.000000,,2013-04-17 22:42:00,
2013-04-17 18:12:00,40.0,40.0,-100.00,NW,318,3.0,12.0,100,0.22,,,0.57,6.000000,,2013-04-17 23:12:00,
2013-04-17 18:22:00,40.0,40.0,-100.00,NW,318,3.0,12.0,100,0.22,,,0.57,6.000000,,2013-04-17 23:22:00,
2013-04-17 18:32:00,40.0,40.0,-100.00,NW,318,3.0,12.0,100,0.22,,,0.57,6.000000,,2013-04-17 23:32:00,
2013-04-17 18:42:00,40.0,40.0,-100.00,NW,318,3.0,12.0,100,0.22,,,0.57,6.000000,,2013-04-17 23:42:00,
2013-04-17 19:12:00,40.0,40.0,-100.00,North,358,7.0,16.0,100,0.08,,,0.65,13.000000,,2013-04-18 00:12:00,
2013-04-17 19:22:00,40.0,40.0,-100.00,North,358,7.0,16.0,100,0.08,,,0.65,13.000000,,2013-04-18 00:22:00,
2013-04-17 19:32:00,40.0,40.0,-100.00,North,358,7.0,16.0,100,0.08,,,0.65,13.000000,,2013-04-18 00:32:00,
2013-04-17 19:42:00,40.0,40.0,-100.00,North,358,7.0,16.0,100,0.08,,,0.65,13.000000,,2013-04-18 00:42:00,
2013-04-17 20:12:00,39.0,39.0,-100.00,NNW,337,7.0,16.0,100,0.00,,,0.65,10.000000,,2013-04-18 01:12:00,
2013-04-17 20:22:00,39.0,39.0,-100.00,NNW,337,7.0,16.0,100,0.00,,,0.65,10.000000,,2013-04-18 01:22:00,
2013-04-17 20:32:00,39.0,39.0,-100.00,NNW,337,7.0,16.0,100,0.00,,,0.65,10.000000,,2013-04-18 01:32:00,
2013-04-17 20:42:00,39.0,39.0,-100.00,NNW,337,7.0,16.0,100,0.00,,,0.65,10.000000,,2013-04-18 01:42:00,
2013-04-17 21:12:00,39.0,39.0,-100.00,NNW,341,7.0,14.0,100,0.00,,,0.65,2.000000,,2013-04-18 02:12:00,
2013-04-17 21:22:00,39.0,39.0,-100.00,NNW,341,7.0,14.0,100,0.00,,,0.65,2.000000,,2013-04-18 02:22:00,
2013-04-17 21:32:00,39.0,39.0,-100.00,NNW,341,7.0,14.0,100,0.00,,,0.65,2.000000,,2013-04-18 02:32:00,
2013-04-17 21:42:00,39.0,39.0,-100.00,NNW,341,7.0,14.0,100,0.00,,,0.65,2.000000,,2013-04-18 02:42:00,
2013-04-17 22:12:00,39.0,38.0,-100.00,NNW,334,9.0,19.0,98,0.00,,,0.65,0.000000,,2013-04-18 03:12:00,
2013-04-17 22:22:00,39.0,38.0,-100.00,NNW,334,9.0,19.0,98,0.00,,,0.65,0.000000,,2013-04-18 03:22:00,
2013-04-17 22:33:00,39.0,38.0,-100.00,NNW,334,9.0,19.0,98,0.00,,,0.65,0.000000,,2013-04-18 03:33:00,
2013-04-17 22:43:00,39.0,38.0,-100.00,NNW,334,9.0,19.0,98,0.00,,,0.65,0.000000,,2013-04-18 03:43:00,
2013-04-17 23:13:00,37.0,37.0,-100.00,North,356,7.0,19.0,100,0.00,,,0.65,0.000000,,2013-04-18 04:13:00,
2013-04-17 23:23:00,37.0,37.0,-100.00,North,356,7.0,19.0,100,0.00,,,0.65,0.000000,,2013-04-18 04:23:00,
2013-04-17 23:33:00,37.0,37.0,-100.00,North,356,7.0,19.0,100,0.00,,,0.65,0.000000,,2013-04-18 04:33:00,
2013-04-17 23:43:00,37.0,37.0,-100.00,North,356,7.0,19.0,100,0.00,,,0.65,0.000000,,2013-04-18 04:43:00,